Time;durP1;ratioP1;P1;durP2;ratioP2;P2;SDS_P1;SDS_P2;PMS_P1;PMS_P2;Temp;Humidity;BMP_temperature;BMP_pressure;BME280_temperature;BME280_humidity;BME280_pressure;Samples;Min_cycle;Max_cycle;Signal;HPM_P1;HPM_P2
2024/01/24 00:02:03;;;;;;;7.80;1.98;;;;;;;12.08;100.00;101340.41;5018255;28;20033;-64
2024/01/24 00:04:28;;;;;;;5.47;1.67;;;;;;;12.13;100.00;101332.94;5015265;28;20402;-64
2024/01/24 00:06:54;;;;;;;5.18;1.50;;;;;;;12.15;100.00;101323.84;5018802;28;20087;-64
2024/01/24 00:09:19;;;;;;;6.20;1.80;;;;;;;12.17;100.00;101337.03;5018384;28;20472;-64
2024/01/24 00:11:44;;;;;;;4.03;1.90;;;;;;;12.18;100.00;101344.09;5016029;28;20033;-64
2024/01/24 00:14:10;;;;;;;3.75;1.60;;;;;;;12.18;100.00;101349.41;5017519;28;20044;-64
2024/01/24 00:16:35;;;;;;;3.53;1.80;;;;;;;12.19;100.00;101353.75;5018497;28;20021;-64
2024/01/24 00:19:01;;;;;;;3.95;1.75;;;;;;;12.24;100.00;101366.72;5017946;28;20054;-64
2024/01/24 00:21:26;;;;;;;3.42;1.70;;;;;;;12.23;100.00;101362.38;5019498;28;20033;-64
2024/01/24 00:23:51;;;;;;;2.50;1.27;;;;;;;12.23;100.00;101368.56;5014640;28;20535;-64
2024/01/24 00:26:17;;;;;;;3.35;1.30;;;;;;;12.24;100.00;101358.75;5019946;28;20037;-64
2024/01/24 00:28:42;;;;;;;3.97;1.48;;;;;;;12.28;100.00;101336.25;5020855;28;20030;-64
2024/01/24 00:31:08;;;;;;;3.08;1.63;;;;;;;12.30;100.00;101345.81;5025019;28;20014;-64
2024/01/24 00:33:33;;;;;;;2.78;1.63;;;;;;;12.28;100.00;101338.91;5022166;28;20428;-64
2024/01/24 00:35:58;;;;;;;3.20;1.35;;;;;;;12.32;100.00;101314.59;5020278;28;20029;-64
2024/01/24 00:38:24;;;;;;;5.78;1.50;;;;;;;12.35;100.00;101342.78;5022270;28;20391;-64
2024/01/24 00:40:49;;;;;;;2.67;1.58;;;;;;;12.37;100.00;101338.19;5020357;28;20042;-64
2024/01/24 00:43:15;;;;;;;3.72;1.45;;;;;;;12.34;100.00;101323.31;5018135;28;20040;-64
2024/01/24 00:45:40;;;;;;;1.90;1.20;;;;;;;12.36;100.00;101318.72;5023619;28;20030;-64
2024/01/24 00:48:06;;;;;;;4.53;1.40;;;;;;;12.37;100.00;101335.53;5020110;28;20025;-64
2024/01/24 00:50:32;;;;;;;4.20;1.30;;;;;;;12.36;100.00;101321.38;5021529;28;20026;-64
2024/01/24 00:53:06;;;;;;;3.28;1.33;;;;;;;12.35;100.00;101317.00;5020843;28;20358;-64
2024/01/24 00:55:31;;;;;;;3.92;1.35;;;;;;;12.32;100.00;101332.38;5018928;28;20046;-64
2024/01/24 00:57:58;;;;;;;2.15;1.15;;;;;;;12.34;100.00;101331.31;5021998;28;20387;-63
2024/01/24 01:00:24;;;;;;;2.38;1.20;;;;;;;12.34;100.00;101323.31;5016103;28;20031;-64
2024/01/24 01:02:49;;;;;;;2.05;1.10;;;;;;;12.32;100.00;101319.94;5021765;28;20086;-63
2024/01/24 01:05:14;;;;;;;2.60;1.45;;;;;;;12.33;100.00;101316.28;5016946;28;20026;-63
2024/01/24 01:07:40;;;;;;;4.00;1.58;;;;;;;12.29;100.00;101325.47;5026495;28;20026;-63
2024/01/24 01:10:08;;;;;;;2.70;1.17;;;;;;;12.23;100.00;101315.28;5022261;28;20040;-64
2024/01/24 01:12:33;;;;;;;4.70;1.43;;;;;;;12.20;100.00;101316.34;5021855;28;20041;-64
2024/01/24 01:14:59;;;;;;;2.65;1.30;;;;;;;12.16;100.00;101320.22;5024032;28;20645;-64
2024/01/24 01:17:24;;;;;;;1.73;1.20;;;;;;;12.12;100.00;101321.41;5020893;28;20038;-64
2024/01/24 01:19:49;;;;;;;2.83;1.50;;;;;;;12.10;100.00;101310.03;5022663;28;20033;-64
2024/01/24 01:22:14;;;;;;;2.97;1.38;;;;;;;12.08;100.00;101322.63;5020110;28;20037;-64
2024/01/24 01:24:40;;;;;;;1.48;1.20;;;;;;;12.09;100.00;101315.47;5020341;28;20437;-64
2024/01/24 01:27:05;;;;;;;2.15;1.10;;;;;;;12.03;100.00;101311.47;5021718;28;20080;-64
2024/01/24 01:29:30;;;;;;;3.33;1.17;;;;;;;12.03;100.00;101316.78;5016717;28;20037;-64
2024/01/24 01:31:56;;;;;;;3.42;1.70;;;;;;;11.98;100.00;101300.31;5021439;28;20072;-64
2024/01/24 01:34:21;;;;;;;4.82;1.40;;;;;;;11.96;100.00;101294.28;5020059;28;20112;-64
2024/01/24 01:36:46;;;;;;;3.13;1.30;;;;;;;11.92;100.00;101295.44;5021057;28;20395;-64
2024/01/24 01:39:12;;;;;;;3.05;1.45;;;;;;;11.90;100.00;101297.34;5018419;28;20156;-64
2024/01/24 01:41:37;;;;;;;4.82;1.30;;;;;;;11.89;100.00;101290.31;5020646;28;20176;-64
2024/01/24 01:44:03;;;;;;;2.05;1.23;;;;;;;11.87;100.00;101330.34;5019720;28;20406;-64
2024/01/24 01:46:29;;;;;;;1.90;1.20;;;;;;;11.84;100.00;101318.16;5022622;28;20061;-64
2024/01/24 01:48:56;;;;;;;2.67;1.27;;;;;;;11.80;100.00;101303.34;5020832;28;20022;-64
2024/01/24 01:51:22;;;;;;;3.28;1.20;;;;;;;11.78;100.00;101315.09;5017712;28;20030;-64
2024/01/24 01:53:48;;;;;;;3.33;1.25;;;;;;;11.78;100.00;101315.94;5018624;28;20080;-64
2024/01/24 01:56:17;;;;;;;1.42;1.23;;;;;;;11.77;100.00;101324.88;5021264;28;20131;-64
2024/01/24 01:58:44;;;;;;;1.95;1.30;;;;;;;11.76;100.00;101317.03;5015892;28;20038;-64
2024/01/24 02:01:10;;;;;;;1.10;1.00;;;;;;;11.72;100.00;101311.06;5021128;28;20052;-64
2024/01/24 02:03:36;;;;;;;2.47;1.30;;;;;;;11.70;100.00;101312.16;5022216;28;20025;-64
2024/01/24 02:06:01;;;;;;;2.45;1.27;;;;;;;11.69;100.00;101297.13;5015061;28;20372;-64
2024/01/24 02:08:27;;;;;;;1.50;1.13;;;;;;;11.64;100.00;101298.34;5020318;28;20018;-63
2024/01/24 02:10:52;;;;;;;1.77;1.10;;;;;;;11.66;100.00;101295.56;5015025;28;20167;-63
2024/01/24 02:13:19;;;;;;;2.58;0.90;;;;;;;11.61;100.00;101295.06;5019846;28;20049;-63
2024/01/24 02:15:44;;;;;;;2.53;1.10;;;;;;;11.58;100.00;101311.25;5019950;28;20079;-63
2024/01/24 02:18:10;;;;;;;1.20;0.85;;;;;;;11.58;100.00;101317.41;5017330;28;20100;-63
2024/01/24 02:20:35;;;;;;;1.50;0.98;;;;;;;11.57;100.00;101322.84;5020587;28;20034;-63
2024/01/24 02:23:02;;;;;;;1.30;0.93;;;;;;;11.55;100.00;101299.00;5018361;28;20026;-63
2024/01/24 02:25:27;;;;;;;0.85;0.82;;;;;;;11.56;100.00;101308.69;5018807;28;20261;-63
2024/01/24 02:27:52;;;;;;;0.90;0.80;;;;;;;11.50;100.00;101297.66;5020210;28;20050;-63
2024/01/24 02:30:18;;;;;;;1.10;1.00;;;;;;;11.50;100.00;101287.84;5019358;28;20071;-63
2024/01/24 02:32:43;;;;;;;1.10;0.80;;;;;;;11.47;100.00;101304.91;5017808;28;20061;-64
2024/01/24 02:35:08;;;;;;;1.00;0.90;;;;;;;11.45;100.00;101308.63;5021894;28;20112;-63
2024/01/24 02:37:33;;;;;;;1.00;0.90;;;;;;;11.42;100.00;101306.19;5017058;28;20041;-63
2024/01/24 02:39:59;;;;;;;1.88;0.77;;;;;;;11.45;100.00;101314.78;5020848;28;20119;-63
2024/01/24 02:42:24;;;;;;;0.70;0.70;;;;;;;11.45;100.00;101305.97;5015799;28;20040;-63
2024/01/24 02:44:50;;;;;;;0.77;0.77;;;;;;;11.42;100.00;101327.47;5018981;28;20490;-63
2024/01/24 02:47:16;;;;;;;0.80;0.80;;;;;;;11.42;100.00;101322.13;5016985;28;20033;-63
2024/01/24 02:49:42;;;;;;;0.75;0.75;;;;;;;11.42;100.00;101314.16;5019192;28;20033;-64
2024/01/24 02:52:07;;;;;;;0.90;0.90;;;;;;;11.43;100.00;101321.19;5018438;28;20021;-64
2024/01/24 02:54:32;;;;;;;0.90;0.85;;;;;;;11.44;100.00;101322.88;5018886;28;20502;-63
2024/01/24 02:56:57;;;;;;;0.80;0.80;;;;;;;11.42;100.00;101300.84;5020216;28;20022;-63
2024/01/24 02:59:23;;;;;;;1.05;1.05;;;;;;;11.43;100.00;101308.72;5019058;28;20026;-64
2024/01/24 03:01:49;;;;;;;1.25;0.98;;;;;;;11.43;100.00;101290.09;5014476;28;20030;-64
2024/01/24 03:04:14;;;;;;;1.10;1.10;;;;;;;11.45;100.00;101279.38;5022471;28;20052;-63
2024/01/24 03:06:41;;;;;;;1.15;1.10;;;;;;;11.49;100.00;101291.50;5019558;28;20066;-64
2024/01/24 03:09:07;;;;;;;1.50;1.40;;;;;;;11.50;100.00;101290.50;5020631;28;20434;-64
2024/01/24 03:11:32;;;;;;;1.25;1.20;;;;;;;11.51;100.00;101273.59;5016985;28;20025;-64
2024/01/24 03:13:58;;;;;;;1.38;1.27;;;;;;;11.52;100.00;101288.56;5019038;28;20537;-64
2024/01/24 03:16:23;;;;;;;1.30;1.20;;;;;;;11.53;100.00;101290.28;5016751;28;20022;-64
2024/01/24 03:18:48;;;;;;;1.27;1.17;;;;;;;11.52;100.00;101304.53;5020562;28;20025;-64
2024/01/24 03:21:16;;;;;;;2.40;1.08;;;;;;;11.51;100.00;101312.63;5015774;28;20030;-64
2024/01/24 03:23:42;;;;;;;1.35;1.00;;;;;;;11.53;100.00;101294.78;5019101;28;20036;-64
2024/01/24 03:26:07;;;;;;;2.08;1.02;;;;;;;11.56;100.00;101313.16;5017623;28;20105;-64
2024/01/24 03:28:33;;;;;;;1.08;0.90;;;;;;;11.55;100.00;101330.09;5018942;28;20483;-64
2024/01/24 03:31:00;;;;;;;2.92;1.02;;;;;;;11.55;100.00;101327.41;5021074;28;20026;-64
2024/01/24 03:33:25;;;;;;;1.08;0.95;;;;;;;11.55;100.00;101338.91;5020086;28;20025;-64
2024/01/24 03:35:51;;;;;;;3.05;1.00;;;;;;;11.53;100.00;101363.94;5016470;28;20553;-64
2024/01/24 03:38:16;;;;;;;1.55;1.00;;;;;;;11.54;100.00;101365.63;5021238;28;20068;-64
2024/01/24 03:40:42;;;;;;;2.30;1.10;;;;;;;11.52;100.00;101365.72;5017791;28;20060;-64
2024/01/24 03:43:09;;;;;;;2.95;1.30;;;;;;;11.55;100.00;101384.13;5021149;28;20021;-64
2024/01/24 03:45:35;;;;;;;4.00;1.33;;;;;;;11.56;100.00;101367.22;5018728;28;20022;-64
2024/01/24 03:48:01;;;;;;;4.90;1.27;;;;;;;11.59;100.00;101390.06;5012587;28;20108;-64
2024/01/24 03:50:26;;;;;;;5.38;1.60;;;;;;;11.58;100.00;101393.72;5016850;28;20426;-64
2024/01/24 03:52:51;;;;;;;4.68;1.80;;;;;;;11.58;100.00;101399.88;5018789;28;20084;-64
2024/01/24 03:55:16;;;;;;;5.85;1.80;;;;;;;11.61;100.00;101412.97;5015799;28;20034;-64
2024/01/24 03:57:42;;;;;;;4.72;1.90;;;;;;;11.59;100.00;101406.91;5019535;28;20096;-64
2024/01/24 04:00:09;;;;;;;7.38;2.22;;;;;;;11.58;100.00;101399.03;5020862;28;20045;-64
2024/01/24 04:02:35;;;;;;;8.23;2.10;;;;;;;11.58;100.00;101396.38;5016508;28;20025;-64
2024/01/24 04:05:00;;;;;;;12.30;2.83;;;;;;;11.58;100.00;101415.00;5023241;28;20029;-64
2024/01/24 04:07:25;;;;;;;9.82;2.22;;;;;;;11.57;100.00;101424.78;5022704;28;20080;-64
2024/01/24 04:09:50;;;;;;;9.52;2.38;;;;;;;11.59;100.00;101390.06;5021469;28;20040;-64
2024/01/24 04:12:16;;;;;;;10.85;2.72;;;;;;;11.55;100.00;101386.78;5023268;28;20087;-64
2024/01/24 04:14:41;;;;;;;10.50;3.03;;;;;;;11.59;100.00;101393.59;5021217;28;20040;-64
2024/01/24 04:17:06;;;;;;;17.70;3.72;;;;;;;11.57;100.00;101394.66;5024837;28;20091;-64
2024/01/24 04:19:31;;;;;;;11.93;2.95;;;;;;;11.56;100.00;101395.66;5016742;28;20040;-65
2024/01/24 04:21:57;;;;;;;11.13;2.75;;;;;;;11.57;100.00;101387.53;5019388;28;20048;-64
2024/01/24 04:24:22;;;;;;;9.80;3.00;;;;;;;11.55;100.00;101399.25;5023025;28;20434;-64
2024/01/24 04:26:47;;;;;;;12.50;2.92;;;;;;;11.54;100.00;101393.09;5018476;28;20022;-64
2024/01/24 04:29:12;;;;;;;14.93;3.17;;;;;;;11.54;100.00;101419.69;5024258;28;20061;-65
2024/01/24 04:31:38;;;;;;;13.50;3.10;;;;;;;11.51;100.00;101422.56;5021526;28;20032;-64
2024/01/24 04:34:03;;;;;;;12.35;3.88;;;;;;;11.51;100.00;101435.88;5023216;28;20029;-64
2024/01/24 04:36:28;;;;;;;15.80;3.40;;;;;;;11.52;100.00;101437.56;5025858;28;20379;-64
2024/01/24 04:38:53;;;;;;;15.40;4.13;;;;;;;11.53;100.00;101460.53;5026304;28;20044;-64
2024/01/24 04:41:19;;;;;;;18.95;4.00;;;;;;;11.51;100.00;101441.19;5021877;28;20061;-64
2024/01/24 04:43:44;;;;;;;19.85;4.18;;;;;;;11.51;100.00;101429.69;5020826;28;20038;-64
2024/01/24 04:46:13;;;;;;;23.30;5.05;;;;;;;11.43;100.00;101449.69;5024598;28;20032;-64
2024/01/24 04:48:40;;;;;;;17.05;3.72;;;;;;;11.40;100.00;101457.91;5020180;28;20026;-64
2024/01/24 04:51:06;;;;;;;19.63;4.72;;;;;;;11.36;100.00;101459.09;5023571;28;20105;-64
2024/01/24 04:53:32;;;;;;;16.90;4.13;;;;;;;11.34;100.00;101454.81;5024141;28;20152;-64
2024/01/24 04:55:57;;;;;;;17.05;4.13;;;;;;;11.32;100.00;101446.09;5018180;28;20026;-64
2024/01/24 04:58:23;;;;;;;17.83;4.60;;;;;;;11.33;100.00;101450.47;5021761;28;20396;-64
2024/01/24 05:00:48;;;;;;;17.63;4.63;;;;;;;11.30;100.00;101440.88;5022109;28;20491;-64
2024/01/24 05:03:14;;;;;;;24.48;5.60;;;;;;;11.30;100.00;101443.53;5021606;28;20038;-64
2024/01/24 05:05:40;;;;;;;20.38;5.63;;;;;;;11.23;100.00;101427.16;5020106;28;20022;-64
2024/01/24 05:08:06;;;;;;;24.48;4.40;;;;;;;11.22;100.00;101433.44;5022222;28;20092;-64
2024/01/24 05:10:31;;;;;;;22.90;5.70;;;;;;;11.21;100.00;101436.22;5020292;28;20029;-64
2024/01/24 05:12:56;;;;;;;22.80;4.57;;;;;;;11.20;100.00;101443.34;5022061;28;20294;-64
2024/01/24 05:15:22;;;;;;;24.25;5.63;;;;;;;11.16;100.00;101459.59;5019216;28;20551;-64
2024/01/24 05:17:47;;;;;;;24.50;5.32;;;;;;;11.16;100.00;101484.41;5022562;28;20026;-64
2024/01/24 05:20:12;;;;;;;25.27;5.43;;;;;;;11.17;100.00;101501.19;5025192;28;20103;-64
2024/01/24 05:22:38;;;;;;;22.48;4.93;;;;;;;11.19;100.00;101507.25;5023670;28;20129;-64
2024/01/24 05:25:03;;;;;;;21.10;4.97;;;;;;;11.16;100.00;101463.13;5022337;28;20044;-64
2024/01/24 05:27:28;;;;;;;21.25;5.80;;;;;;;11.19;100.00;101513.44;5020322;28;20448;-64
2024/01/24 05:29:54;;;;;;;26.92;5.75;;;;;;;11.15;100.00;101508.44;5023554;28;20022;-64
2024/01/24 05:32:19;;;;;;;26.00;5.50;;;;;;;11.17;100.00;101494.06;5021913;28;20096;-64
2024/01/24 05:34:44;;;;;;;21.05;5.18;;;;;;;11.11;100.00;101521.94;5018958;28;20052;-64
2024/01/24 05:37:09;;;;;;;21.33;5.32;;;;;;;11.11;100.00;101502.47;5023628;28;20042;-64
2024/01/24 05:39:35;;;;;;;21.25;4.97;;;;;;;11.10;100.00;101506.09;5022338;28;20029;-64
2024/01/24 05:42:00;;;;;;;25.88;5.18;;;;;;;11.10;100.00;101516.72;5022011;28;20021;-64
2024/01/24 05:44:25;;;;;;;23.08;5.93;;;;;;;11.09;100.00;101517.66;5019042;28;20049;-64
2024/01/24 05:46:51;;;;;;;26.17;5.55;;;;;;;11.07;100.00;101507.16;5023259;28;20479;-64
2024/01/24 05:49:18;;;;;;;26.85;6.15;;;;;;;11.04;100.00;101531.28;5018927;28;20086;-65
2024/01/24 05:51:43;;;;;;;26.30;5.35;;;;;;;11.00;100.00;101529.78;5022454;28;20041;-64
2024/01/24 05:54:08;;;;;;;28.63;6.72;;;;;;;11.00;100.00;101534.25;5018115;28;20037;-64
2024/01/24 05:56:35;;;;;;;26.00;5.50;;;;;;;10.98;100.00;101534.34;5019492;28;20392;-64
2024/01/24 05:59:00;;;;;;;27.58;6.55;;;;;;;10.96;100.00;101536.25;5022178;28;20060;-64
2024/01/24 06:01:25;;;;;;;27.30;6.10;;;;;;;11.00;100.00;101544.88;5018904;28;20060;-64
2024/01/24 06:03:51;;;;;;;27.75;6.47;;;;;;;10.99;100.00;101553.78;5017007;28;20029;-64
2024/01/24 06:06:16;;;;;;;30.38;5.57;;;;;;;10.97;100.00;101523.81;5021768;28;20166;-64
2024/01/24 06:08:43;;;;;;;27.92;6.40;;;;;;;10.96;100.00;101538.94;5022495;28;20475;-64
2024/01/24 06:11:09;;;;;;;26.00;5.68;;;;;;;10.97;100.00;101558.38;5019262;28;20030;-64
2024/01/24 06:13:35;;;;;;;30.05;6.18;;;;;;;11.01;99.61;101575.84;5019082;28;20101;-64
2024/01/24 06:16:00;;;;;;;30.33;6.05;;;;;;;10.95;100.00;101558.47;5013658;28;21248;-64
2024/01/24 06:18:25;;;;;;;38.20;7.20;;;;;;;10.96;99.01;101565.50;5014986;28;20037;-64
2024/01/24 06:20:50;;;;;;;29.23;7.43;;;;;;;10.98;98.88;101589.31;5019175;28;20030;-64
2024/01/24 06:23:16;;;;;;;26.80;6.72;;;;;;;10.95;99.21;101593.03;5015615;28;20045;-64
2024/01/24 06:25:42;;;;;;;33.55;6.90;;;;;;;10.92;98.50;101599.41;5010214;28;20030;-64
2024/01/24 06:28:07;;;;;;;29.58;6.45;;;;;;;10.94;97.53;101601.94;5013840;28;20391;-64
2024/01/24 06:30:32;;;;;;;33.10;7.75;;;;;;;10.96;96.52;101609.81;5020040;28;20080;-63
2024/01/24 06:32:58;;;;;;;33.50;7.10;;;;;;;10.92;95.26;101635.75;5017504;28;20087;-64
2024/01/24 06:35:23;;;;;;;29.77;6.95;;;;;;;10.87;96.74;101644.00;5017512;28;20383;-64
2024/01/24 06:37:49;;;;;;;30.10;7.93;;;;;;;10.86;96.69;101641.50;5017914;28;20385;-64
2024/01/24 06:40:15;;;;;;;36.35;7.43;;;;;;;10.82;97.06;101654.09;5017301;28;20037;-64
2024/01/24 06:42:40;;;;;;;36.63;7.43;;;;;;;10.82;97.85;101678.00;5019031;28;20030;-64
2024/01/24 06:45:08;;;;;;;36.22;7.80;;;;;;;10.83;97.47;101670.91;5019545;28;20022;-64
2024/01/24 06:47:34;;;;;;;35.60;7.68;;;;;;;10.81;97.86;101662.16;5011612;28;20569;-64
2024/01/24 06:49:59;;;;;;;34.22;7.47;;;;;;;10.80;97.36;101671.09;5021948;28;20105;-64
2024/01/24 06:52:25;;;;;;;39.58;7.47;;;;;;;10.77;97.29;101696.06;5016443;28;20132;-64
2024/01/24 06:54:51;;;;;;;37.55;7.78;;;;;;;10.75;96.43;101716.56;5017929;28;20414;-64
2024/01/24 06:57:16;;;;;;;32.58;8.35;;;;;;;10.74;96.02;101733.44;5015856;28;20036;-65
2024/01/24 06:59:41;;;;;;;36.92;7.45;;;;;;;10.69;95.66;101747.03;5018347;28;20056;-65
2024/01/24 07:02:07;;;;;;;39.08;7.53;;;;;;;10.69;94.28;101732.88;5017373;28;20026;-65
2024/01/24 07:04:32;;;;;;;37.45;8.10;;;;;;;10.64;95.90;101708.41;5020195;28;20116;-65
2024/01/24 07:06:57;;;;;;;36.50;7.22;;;;;;;10.64;95.02;101696.00;5022182;28;20040;-65
2024/01/24 07:09:23;;;;;;;36.03;8.18;;;;;;;10.61;94.33;101705.94;5010506;28;20024;-65
2024/01/24 07:11:48;;;;;;;33.83;7.65;;;;;;;10.65;92.57;101720.75;5018288;28;20090;-65
2024/01/24 07:14:17;;;;;;;32.70;7.05;;;;;;;10.61;92.33;101704.16;5015599;28;20064;-65
2024/01/24 07:16:44;;;;;;;34.65;7.80;;;;;;;10.58;93.40;101724.75;5016179;28;20032;-64
2024/01/24 07:19:09;;;;;;;35.00;7.47;;;;;;;10.54;93.67;101703.69;5019735;28;20550;-64
2024/01/24 07:21:34;;;;;;;40.97;7.82;;;;;;;10.50;95.02;101735.84;5018540;28;20033;-64
2024/01/24 07:24:00;;;;;;;35.00;8.35;;;;;;;10.46;95.28;101753.78;5017784;28;20471;-64
2024/01/24 07:26:25;;;;;;;41.95;8.85;;;;;;;10.43;95.18;101753.13;5018352;28;20026;-64
2024/01/24 07:28:50;;;;;;;35.97;8.50;;;;;;;10.42;94.14;101740.78;5011142;28;20021;-64
2024/01/24 07:31:17;;;;;;;44.17;8.60;;;;;;;10.32;94.81;101757.25;5011703;28;20270;-64
2024/01/24 07:33:42;;;;;;;33.45;7.43;;;;;;;10.24;94.81;101758.66;5018642;28;20087;-64
2024/01/24 07:36:08;;;;;;;42.33;8.18;;;;;;;10.18;94.68;101783.78;5020055;28;20026;-63
2024/01/24 07:38:33;;;;;;;33.60;7.55;;;;;;;10.13;94.56;101772.59;5021446;28;20025;-64
2024/01/24 07:40:58;;;;;;;38.72;8.30;;;;;;;10.09;92.25;101790.50;5015058;28;20029;-64
2024/01/24 07:43:23;;;;;;;35.28;8.50;;;;;;;10.01;92.03;101774.19;5018080;28;20021;-63
2024/01/24 07:45:49;;;;;;;38.28;8.38;;;;;;;9.96;91.46;101758.53;5019430;28;20038;-64
2024/01/24 07:48:14;;;;;;;39.40;8.52;;;;;;;9.93;91.68;101787.88;5016670;28;20153;-63
2024/01/24 07:50:42;;;;;;;29.38;8.15;;;;;;;9.86;92.17;101781.25;5013971;28;20057;-64
2024/01/24 07:53:07;;;;;;;39.45;8.07;;;;;;;9.82;91.36;101792.97;5018379;28;20104;-63
2024/01/24 07:55:33;;;;;;;39.40;8.23;;;;;;;9.77;91.46;101808.28;5012913;28;20034;-63
2024/01/24 07:57:58;;;;;;;41.63;7.97;;;;;;;9.75;90.61;101815.50;5015642;28;20311;-63
2024/01/24 08:00:23;;;;;;;31.80;8.35;;;;;;;9.73;90.75;101809.44;5019732;28;20430;-64
2024/01/24 08:02:49;;;;;;;35.58;8.48;;;;;;;9.70;91.51;101812.25;5019783;28;20506;-63
2024/01/24 08:05:14;;;;;;;34.28;7.63;;;;;;;9.68;89.61;101825.59;5017767;28;20495;-63
2024/01/24 08:07:43;;;;;;;39.88;8.82;;;;;;;9.68;89.81;101828.25;5015542;28;20034;-64
2024/01/24 08:10:11;;;;;;;33.75;7.88;;;;;;;9.66;89.77;101830.16;5018565;28;20072;-64
2024/01/24 08:12:38;;;;;;;31.00;7.72;;;;;;;9.65;90.25;101816.97;5017499;28;20077;-64
2024/01/24 08:15:05;;;;;;;36.78;8.10;;;;;;;9.63;90.52;101830.31;5020824;28;20026;-64
2024/01/24 08:17:32;;;;;;;40.97;8.40;;;;;;;9.60;90.87;101833.13;5017087;28;20502;-64
2024/01/24 08:19:57;;;;;;;37.88;8.27;;;;;;;9.59;90.38;101834.94;5020361;28;20030;-64
2024/01/24 08:22:22;;;;;;;45.25;8.60;;;;;;;9.61;89.62;101853.44;5020827;28;20479;-64
2024/01/24 08:24:48;;;;;;;34.15;7.70;;;;;;;9.60;90.27;101863.16;5017401;28;20432;-63
2024/01/24 08:27:13;;;;;;;36.92;8.43;;;;;;;9.62;90.10;101879.00;5018395;28;20030;-64
2024/01/24 08:29:38;;;;;;;38.22;9.38;;;;;;;9.61;90.37;101859.56;5011816;28;20021;-64
2024/01/24 08:32:04;;;;;;;35.70;7.68;;;;;;;9.60;91.12;101851.72;5015344;28;20034;-64
2024/01/24 08:34:30;;;;;;;37.10;7.53;;;;;;;9.62;90.23;101840.06;5020255;28;20121;-64
2024/01/24 08:36:55;;;;;;;36.38;8.27;;;;;;;9.63;91.18;101862.16;5021672;28;20118;-64
2024/01/24 08:39:20;;;;;;;39.72;8.18;;;;;;;9.62;91.17;101868.38;5020299;28;20053;-64
2024/01/24 08:41:46;;;;;;;35.17;8.23;;;;;;;9.60;91.33;101879.06;4998553;28;20027;-64
2024/01/24 08:44:11;;;;;;;44.60;8.13;;;;;;;9.60;92.19;101880.88;5017570;28;20018;-64
2024/01/24 08:46:36;;;;;;;31.20;8.13;;;;;;;9.61;91.81;101886.09;5022571;28;20492;-64
2024/01/24 08:49:02;;;;;;;42.15;8.57;;;;;;;9.61;92.00;101902.03;5017710;28;20058;-64
2024/01/24 08:51:31;;;;;;;44.25;9.13;;;;;;;9.65;92.23;101909.81;5020443;28;20033;-64
2024/01/24 08:53:57;;;;;;;43.75;8.55;;;;;;;9.67;92.60;101889.34;5018570;28;20047;-64
2024/01/24 08:56:22;;;;;;;38.13;8.90;;;;;;;9.67;92.24;101889.34;5018835;28;20125;-64
2024/01/24 08:58:48;;;;;;;43.83;9.30;;;;;;;9.69;91.75;101880.38;5017433;28;20116;-64
2024/01/24 09:01:13;;;;;;;35.20;7.45;;;;;;;9.68;92.26;101891.06;5022751;28;20030;-64
2024/01/24 09:03:39;;;;;;;40.42;8.05;;;;;;;9.69;91.61;101914.88;5024285;28;20032;-64
2024/01/24 09:06:04;;;;;;;39.28;8.07;;;;;;;9.71;91.08;101942.16;5017083;28;20030;-64
2024/01/24 09:08:29;;;;;;;40.15;8.02;;;;;;;9.73;91.33;101934.13;5021251;28;20026;-64
2024/01/24 09:10:54;;;;;;;38.22;7.63;;;;;;;9.73;90.69;101945.56;5024516;28;20049;-64
2024/01/24 09:13:22;;;;;;;35.42;9.18;;;;;;;9.73;90.56;101945.56;5023811;28;20045;-64
2024/01/24 09:15:47;;;;;;;33.83;7.78;;;;;;;9.73;91.10;101934.97;5023134;28;20028;-64
2024/01/24 09:18:13;;;;;;;39.10;8.85;;;;;;;9.74;91.53;101934.03;5022955;28;20463;-64
2024/01/24 09:20:38;;;;;;;34.92;8.70;;;;;;;9.74;92.08;101941.13;5021881;28;20033;-64
2024/01/24 09:23:03;;;;;;;41.40;8.75;;;;;;;9.77;91.80;101938.31;5022594;28;20104;-64
2024/01/24 09:25:29;;;;;;;40.90;8.75;;;;;;;9.78;91.40;101962.09;5019396;28;20049;-64
2024/01/24 09:27:55;;;;;;;34.03;8.60;;;;;;;9.80;92.72;101962.84;5022564;28;20463;-64
2024/01/24 09:30:21;;;;;;;37.65;9.02;;;;;;;9.82;91.61;101952.16;5019941;28;20029;-64
2024/01/24 09:32:46;;;;;;;42.45;9.45;;;;;;;9.87;91.98;101970.50;5023242;28;20037;-64
2024/01/24 09:35:12;;;;;;;43.08;8.77;;;;;;;9.88;92.45;101998.75;5024268;28;20518;-64
2024/01/24 09:37:37;;;;;;;36.13;8.57;;;;;;;9.90;92.04;101991.56;5020386;28;20037;-64
2024/01/24 09:40:03;;;;;;;43.60;9.88;;;;;;;9.95;91.54;102000.13;5023529;28;20045;-64
2024/01/24 09:42:32;;;;;;;40.50;8.98;;;;;;;9.97;91.32;102007.03;5023321;28;20045;-64
2024/01/24 09:44:58;;;;;;;42.92;8.77;;;;;;;10.01;91.21;102013.06;5026058;28;20041;-64
2024/01/24 09:47:24;;;;;;;40.00;7.85;;;;;;;10.03;90.98;102018.28;5022728;28;20018;-64
2024/01/24 09:49:50;;;;;;;34.95;8.35;;;;;;;10.05;90.40;102011.06;5024355;28;20446;-64
2024/01/24 09:52:24;;;;;;;38.03;8.52;;;;;;;10.07;89.54;102006.53;5020612;28;20026;-64
2024/01/24 09:54:54;;;;;;;35.67;8.50;;;;;;;10.06;90.08;101994.19;5018454;28;20047;-64
2024/01/24 09:57:20;;;;;;;36.85;8.70;;;;;;;10.10;89.65;102009.03;5019883;28;20825;-64
2024/01/24 09:59:46;;;;;;;41.17;8.68;;;;;;;10.11;89.45;102022.22;5021043;28;20037;-64
2024/01/24 10:02:11;;;;;;;37.05;7.47;;;;;;;10.09;90.11;102033.84;5023381;28;20095;-64
2024/01/24 10:04:37;;;;;;;44.55;9.18;;;;;;;10.10;89.88;102028.44;5021370;28;20021;-64
2024/01/24 10:07:08;;;;;;;41.08;8.95;;;;;;;10.14;89.65;102059.22;5019192;28;20026;-64
2024/01/24 10:09:33;;;;;;;41.55;9.05;;;;;;;10.15;88.38;102062.72;5016157;28;20505;-64
2024/01/24 10:11:59;;;;;;;45.58;8.68;;;;;;;10.17;87.95;102053.75;5021351;28;20022;-64
2024/01/24 10:14:24;;;;;;;36.10;8.10;;;;;;;10.19;89.15;102056.28;5017586;28;20025;-64
2024/01/24 10:16:52;;;;;;;38.90;8.35;;;;;;;10.21;87.64;102058.84;5023695;28;20426;-64
2024/01/24 10:19:24;;;;;;;38.35;8.55;;;;;;;10.26;87.34;102070.94;5021998;28;20036;-63
2024/01/24 10:21:53;;;;;;;37.92;8.95;;;;;;;10.28;87.64;102068.22;5018408;28;20057;-64
2024/01/24 10:24:19;;;;;;;37.00;8.05;;;;;;;10.33;86.30;102068.84;5012562;28;20049;-64
2024/01/24 10:26:44;;;;;;;35.38;8.25;;;;;;;10.37;86.64;102075.69;5023340;28;20474;-64
2024/01/24 10:29:13;;;;;;;33.13;7.35;;;;;;;10.39;87.31;102073.78;5011418;28;20031;-64
2024/01/24 10:31:38;;;;;;;31.52;8.02;;;;;;;10.44;87.61;102085.03;5022376;28;20021;-64
2024/01/24 10:34:05;;;;;;;38.70;7.68;;;;;;;10.44;86.07;102082.38;5020887;28;20018;-64
2024/01/24 10:36:30;;;;;;;33.22;7.85;;;;;;;10.46;85.99;102082.25;5021850;28;20075;-64
2024/01/24 10:39:00;;;;;;;32.40;8.18;;;;;;;10.48;85.67;102091.03;5015614;28;20438;-64
2024/01/24 10:41:30;;;;;;;37.17;8.30;;;;;;;10.48;83.79;102104.31;5019896;28;20053;-64
2024/01/24 10:43:57;;;;;;;28.55;7.63;;;;;;;10.51;83.82;102109.47;5014524;28;20080;-64
2024/01/24 10:46:23;;;;;;;34.30;8.48;;;;;;;10.51;84.50;102120.06;5022321;28;20384;-64
2024/01/24 10:48:49;;;;;;;35.17;7.30;;;;;;;10.51;83.50;102099.69;5018316;28;20044;-64
2024/01/24 10:51:16;;;;;;;36.20;8.10;;;;;;;10.53;83.77;102111.06;5019971;28;20079;-63
2024/01/24 10:53:43;;;;;;;37.60;7.30;;;;;;;10.57;83.45;102116.22;5013996;28;20133;-64
2024/01/24 10:56:10;;;;;;;36.15;8.60;;;;;;;10.56;82.97;102110.03;5023194;28;20112;-64
2024/01/24 10:58:39;;;;;;;34.33;7.95;;;;;;;10.58;82.96;102094.03;5016589;28;20030;-64
2024/01/24 11:01:05;;;;;;;34.95;7.68;;;;;;;10.58;82.60;102110.81;5019756;28;20096;-64
2024/01/24 11:03:30;;;;;;;31.50;6.95;;;;;;;10.59;82.18;102111.66;5017753;28;20113;-64
2024/01/24 11:06:00;;;;;;;37.03;8.48;;;;;;;10.59;83.51;102123.16;5016642;28;20029;-64
2024/01/24 11:08:50;;;;;;;29.83;6.95;;;;;;;10.62;81.95;102130.94;5018710;28;20048;-64
2024/01/24 11:11:21;;;;;;;31.98;7.03;;;;;;;10.63;82.78;102139.78;5018540;28;20041;-64